Time;durP1;ratioP1;P1;durP2;ratioP2;P2;SDS_P1;SDS_P2;PMS_P1;PMS_P2;Temp;Humidity;BMP_temperature;BMP_pressure;BME280_temperature;BME280_humidity;BME280_pressure;Samples;Min_cycle;Max_cycle;Signal;HPM_P1;HPM_P2
2023/03/25 00:01:53;;;;;;;2.33;1.40;;;20.30;69.50;;;;;;4957449;29;20513;-87
2023/03/25 00:04:20;;;;;;;1.67;1.57;;;20.30;69.20;;;;;;4957608;29;20545;-90
2023/03/25 00:06:47;;;;;;;2.23;1.80;;;20.50;69.50;;;;;;4957167;29;20529;-89
2023/03/25 00:09:14;;;;;;;1.80;1.50;;;20.30;69.30;;;;;;4957058;29;20486;-87
2023/03/25 00:11:41;;;;;;;2.43;2.03;;;20.30;69.30;;;;;;4956872;29;20791;-88
2023/03/25 00:14:11;;;;;;;1.90;1.20;;;20.30;69.30;;;;;;4957016;29;20934;-87
2023/03/25 00:16:38;;;;;;;2.30;1.97;;;20.30;69.40;;;;;;4956842;29;20828;-87
2023/03/25 00:19:05;;;;;;;6.30;1.73;;;20.40;69.40;;;;;;4956584;29;20452;-87
2023/03/25 00:21:33;;;;;;;1.67;1.47;;;20.30;69.40;;;;;;4956845;29;20933;-88
2023/03/25 00:24:00;;;;;;;2.03;1.83;;;20.30;69.30;;;;;;4958917;29;20446;-87
2023/03/25 00:26:28;;;;;;;2.60;1.77;;;20.30;69.40;;;;;;4960139;29;20508;-87
2023/03/25 00:28:56;;;;;;;1.97;1.40;;;20.30;69.30;;;;;;4958991;29;20477;-88
2023/03/25 00:31:24;;;;;;;1.77;1.67;;;20.30;69.30;;;;;;4966702;29;20430;-87
2023/03/25 00:33:50;;;;;;;2.00;1.67;;;20.30;69.30;;;;;;4971939;29;20440;-87
2023/03/25 00:36:18;;;;;;;2.50;1.87;;;20.20;69.20;;;;;;4971536;29;20438;-87
2023/03/25 00:38:49;;;;;;;2.63;1.60;;;20.30;69.20;;;;;;4967029;29;20532;-89
2023/03/25 00:41:21;;;;;;;3.20;2.23;;;20.30;69.30;;;;;;4958501;29;20441;-88
2023/03/25 00:43:49;;;;;;;1.93;1.80;;;20.30;69.20;;;;;;4958041;28;20434;-87
2023/03/25 00:46:16;;;;;;;3.20;1.53;;;20.40;69.40;;;;;;4956355;29;20485;-87
2023/03/25 00:48:44;;;;;;;2.57;1.90;;;20.20;69.10;;;;;;4956806;29;20445;-89
2023/03/25 00:51:13;;;;;;;1.77;1.40;;;20.20;69.00;;;;;;4956666;29;20457;-88
2023/03/25 00:53:40;;;;;;;1.70;1.50;;;20.20;69.00;;;;;;4957060;29;20786;-88
2023/03/25 00:56:07;;;;;;;2.43;1.50;;;20.20;69.00;;;;;;4956863;29;20453;-89
2023/03/25 00:58:34;;;;;;;2.13;1.73;;;20.20;69.10;;;;;;4956714;29;20911;-88
2023/03/25 01:01:07;;;;;;;8.53;1.70;;;20.20;69.10;;;;;;4956509;28;20576;-88
2023/03/25 01:03:35;;;;;;;1.70;1.40;;;20.20;69.10;;;;;;4956228;29;20446;-87
2023/03/25 01:06:04;;;;;;;1.40;1.23;;;20.20;69.10;;;;;;4956238;29;20493;-88
2023/03/25 01:08:31;;;;;;;1.47;1.20;;;20.20;69.10;;;;;;4956519;29;20484;-87
2023/03/25 01:10:58;;;;;;;2.30;1.90;;;20.20;69.10;;;;;;4956714;29;20446;-88
2023/03/25 01:13:25;;;;;;;2.63;1.57;;;20.20;69.10;;;;;;4956151;29;20475;-89
2023/03/25 01:15:52;;;;;;;5.30;1.70;;;20.20;69.00;;;;;;4956384;29;20438;-88
2023/03/25 01:18:18;;;;;;;1.57;1.47;;;20.20;69.00;;;;;;4956377;29;20453;-87
2023/03/25 01:20:45;;;;;;;3.10;1.60;;;20.20;69.00;;;;;;4956619;29;20437;-87
2023/03/25 01:23:13;;;;;;;2.40;1.57;;;20.20;69.00;;;;;;4956173;29;20441;-90
2023/03/25 01:25:40;;;;;;;1.73;1.50;;;20.20;69.10;;;;;;4956489;29;20477;-87
2023/03/25 01:28:07;;;;;;;2.60;1.30;;;20.20;69.10;;;;;;4956414;29;20493;-88
2023/03/25 01:30:34;;;;;;;1.40;1.30;;;20.30;69.10;;;;;;4956325;29;20533;-87
2023/03/25 01:33:00;;;;;;;2.13;1.33;;;20.20;69.00;;;;;;4956319;29;20497;-87
2023/03/25 01:35:27;;;;;;;1.90;1.70;;;20.20;69.00;;;;;;4956337;29;20454;-87
2023/03/25 01:37:54;;;;;;;4.70;1.47;;;20.20;69.00;;;;;;4956579;29;20457;-87
2023/03/25 01:40:23;;;;;;;1.40;1.27;;;20.20;69.00;;;;;;4956091;29;20460;-88
2023/03/25 01:42:50;;;;;;;1.70;1.37;;;20.20;69.00;;;;;;4955799;29;20512;-88
2023/03/25 01:45:24;;;;;;;1.60;1.27;;;20.10;68.80;;;;;;4956332;29;20445;-87
2023/03/25 01:47:57;;;;;;;1.40;1.20;;;20.30;69.10;;;;;;4956237;29;20844;-88
2023/03/25 01:50:27;;;;;;;3.00;1.10;;;20.20;69.00;;;;;;4955977;29;20446;-87
2023/03/25 01:52:58;;;;;;;1.37;1.27;;;20.30;69.00;;;;;;4958500;29;20438;-87
2023/03/25 01:55:27;;;;;;;1.63;1.53;;;20.20;68.90;;;;;;4956742;28;20445;-87
2023/03/25 01:57:58;;;;;;;2.07;1.47;;;20.20;69.00;;;;;;4960644;29;20933;-87
2023/03/25 02:00:26;;;;;;;1.23;1.13;;;20.20;69.00;;;;;;4960248;29;20481;-87
2023/03/25 02:02:57;;;;;;;3.40;1.70;;;20.10;68.80;;;;;;4961337;29;20450;-88
2023/03/25 02:05:32;;;;;;;2.23;1.50;;;20.10;68.80;;;;;;4961980;29;20481;-87
2023/03/25 02:08:02;;;;;;;2.10;1.60;;;20.10;68.80;;;;;;4976450;28;20532;-89
2023/03/25 02:10:30;;;;;;;2.07;1.27;;;20.10;68.70;;;;;;4983669;28;20433;-88
2023/03/25 02:12:57;;;;;;;1.77;1.27;;;20.30;69.00;;;;;;4961389;29;20437;-87
2023/03/25 02:15:24;;;;;;;2.73;1.60;;;20.10;68.80;;;;;;4959306;29;20449;-87
2023/03/25 02:18:14;;;;;;;1.83;1.27;;;20.10;68.80;;;;;;4958599;29;20466;-87
2023/03/25 02:21:17;;;;;;;2.90;1.30;;;20.10;68.80;;;;;;4959058;29;20783;-88
2023/03/25 02:24:24;;;;;;;1.77;1.20;;;20.10;68.80;;;;;;4959108;29;20833;-88
2023/03/25 02:27:14;;;;;;;1.43;1.30;;;20.10;68.70;;;;;;4941862;29;20485;-87
2023/03/25 02:30:09;;;;;;;1.30;1.00;;;20.10;68.70;;;;;;4959126;29;20866;-87
2023/03/25 02:32:58;;;;;;;1.50;1.00;;;20.10;68.70;;;;;;4958852;29;20811;-87
2023/03/25 02:35:40;;;;;;;1.70;1.10;;;20.10;68.80;;;;;;4958816;29;20449;-87
2023/03/25 02:38:25;;;;;;;1.43;1.30;;;20.10;68.80;;;;;;4958502;29;20453;-87
2023/03/25 02:40:56;;;;;;;1.40;1.27;;;20.10;68.60;;;;;;4958840;29;20442;-87
2023/03/25 02:43:28;;;;;;;1.23;1.10;;;20.10;68.80;;;;;;4958390;29;20454;-87
2023/03/25 02:45:57;;;;;;;2.83;1.00;;;20.10;68.70;;;;;;4958546;29;20444;-87
2023/03/25 02:48:32;;;;;;;5.97;1.40;;;20.10;68.60;;;;;;4958407;29;20496;-88
2023/03/25 02:51:02;;;;;;;1.77;1.20;;;20.10;68.60;;;;;;4958590;29;20492;-88
2023/03/25 02:53:36;;;;;;;1.33;1.23;;;20.10;68.70;;;;;;4958411;29;20452;-87
2023/03/25 02:56:07;;;;;;;2.07;1.27;;;20.10;68.60;;;;;;4958481;29;20442;-87
2023/03/25 02:58:36;;;;;;;1.40;1.10;;;20.10;68.70;;;;;;4958203;29;20445;-87
2023/03/25 03:01:03;;;;;;;2.30;1.30;;;20.10;68.60;;;;;;4957837;29;20480;-87
2023/03/25 03:03:30;;;;;;;1.50;1.00;;;20.10;68.50;;;;;;4958262;29;20459;-89
2023/03/25 03:06:00;;;;;;;2.23;1.23;;;20.10;68.50;;;;;;4958044;29;20455;-87
2023/03/25 03:08:38;;;;;;;1.67;1.30;;;20.10;68.60;;;;;;4957273;28;20845;-87
2023/03/25 03:11:12;;;;;;;4.90;1.30;;;20.20;68.70;;;;;;4957831;29;20473;-87
2023/03/25 03:14:00;;;;;;;1.80;1.20;;;20.10;68.60;;;;;;4957546;29;20442;-87
2023/03/25 03:16:33;;;;;;;1.20;1.00;;;20.10;68.60;;;;;;4953369;29;20493;-88
2023/03/25 03:19:10;;;;;;;1.73;1.33;;;20.00;68.40;;;;;;4957939;29;20434;-87
2023/03/25 03:21:41;;;;;;;1.60;1.10;;;20.10;68.50;;;;;;4957907;29;20442;-86
2023/03/25 03:24:15;;;;;;;2.03;1.10;;;20.10;68.60;;;;;;4940980;29;20461;-88
2023/03/25 03:26:46;;;;;;;1.60;1.07;;;20.00;68.40;;;;;;4957586;29;20452;-87
2023/03/25 03:29:17;;;;;;;1.83;1.30;;;20.10;68.50;;;;;;4957364;29;20950;-88
2023/03/25 03:31:47;;;;;;;1.60;1.20;;;20.00;68.40;;;;;;4957897;29;20562;-87
2023/03/25 03:34:21;;;;;;;1.60;1.20;;;20.10;68.50;;;;;;4957429;29;20541;-87
2023/03/25 03:36:52;;;;;;;3.53;1.43;;;20.10;68.50;;;;;;4957484;29;20442;-87
2023/03/25 03:39:24;;;;;;;1.40;1.00;;;20.10;68.50;;;;;;4957249;29;20445;-88
2023/03/25 03:41:56;;;;;;;2.00;1.10;;;20.10;68.50;;;;;;4957531;29;20528;-88
2023/03/25 03:44:27;;;;;;;1.40;1.20;;;20.20;68.60;;;;;;4957135;29;20437;-87
2023/03/25 03:46:57;;;;;;;1.20;1.03;;;20.10;68.50;;;;;;4957822;29;20488;-87
2023/03/25 03:49:28;;;;;;;1.73;1.20;;;20.00;68.30;;;;;;4957079;29;20447;-87
2023/03/25 03:52:01;;;;;;;1.73;1.20;;;20.00;68.30;;;;;;4957319;29;20439;-87
2023/03/25 03:54:33;;;;;;;1.40;1.00;;;20.00;68.40;;;;;;4957189;29;20885;-87
2023/03/25 03:57:03;;;;;;;2.17;1.13;;;20.00;68.20;;;;;;4957128;29;20442;-87
2023/03/25 03:59:39;;;;;;;1.23;1.13;;;20.00;68.30;;;;;;4939815;29;20438;-87
2023/03/25 04:02:13;;;;;;;1.67;1.30;;;20.00;69.10;;;;;;4956755;29;20456;-87
2023/03/25 04:04:41;;;;;;;1.10;0.90;;;20.00;68.30;;;;;;4956716;29;20445;-87
2023/03/25 04:07:14;;;;;;;1.17;0.90;;;20.00;68.30;;;;;;4956657;29;20520;-87
2023/03/25 04:09:54;;;;;;;1.53;1.00;;;20.00;68.30;;;;;;4957801;29;20443;-87
2023/03/25 04:12:24;;;;;;;1.80;1.10;;;20.00;68.30;;;;;;4956628;29;20446;-87
2023/03/25 04:14:52;;;;;;;1.57;0.97;;;20.00;68.30;;;;;;4956815;29;20438;-89
2023/03/25 04:17:19;;;;;;;1.20;0.90;;;20.10;68.40;;;;;;4956445;29;20454;-91
2023/03/25 04:19:47;;;;;;;1.50;1.10;;;20.00;68.30;;;;;;4955645;28;20451;-87
2023/03/25 04:22:17;;;;;;;1.40;0.83;;;20.00;68.30;;;;;;4956631;29;20454;-87
2023/03/25 04:24:48;;;;;;;1.30;1.17;;;20.00;68.30;;;;;;4956540;29;20450;-88
2023/03/25 04:27:15;;;;;;;1.30;1.10;;;20.00;68.30;;;;;;4956195;29;20488;-87
2023/03/25 04:29:43;;;;;;;2.20;1.30;;;20.00;68.30;;;;;;4956294;29;20449;-88
2023/03/25 04:32:12;;;;;;;1.00;0.87;;;20.00;68.20;;;;;;4956051;29;20508;-87
2023/03/25 04:34:39;;;;;;;1.53;1.30;;;20.00;68.20;;;;;;4956193;29;20442;-88
2023/03/25 04:37:05;;;;;;;1.87;1.10;;;20.00;68.20;;;;;;4956446;29;20536;-87
2023/03/25 04:39:32;;;;;;;1.40;0.90;;;20.00;68.20;;;;;;4956215;29;20441;-87
2023/03/25 04:42:02;;;;;;;1.47;1.10;;;20.00;68.20;;;;;;4956293;29;20452;-87
2023/03/25 04:44:32;;;;;;;1.30;0.83;;;20.00;68.20;;;;;;4956125;29;20452;-87
2023/03/25 04:47:00;;;;;;;1.47;1.10;;;20.00;68.20;;;;;;4956142;29;20466;-87
2023/03/25 04:49:27;;;;;;;1.10;0.80;;;20.10;68.40;;;;;;4956086;29;20449;-87
2023/03/25 04:51:55;;;;;;;1.23;1.00;;;20.00;68.20;;;;;;4955859;29;20926;-87
2023/03/25 04:54:23;;;;;;;1.20;0.90;;;20.00;68.20;;;;;;4956095;29;20461;-87
2023/03/25 04:56:51;;;;;;;1.13;0.80;;;20.00;68.10;;;;;;4955842;29;20922;-87
2023/03/25 04:59:19;;;;;;;1.60;1.50;;;19.90;68.00;;;;;;4955877;28;21018;-87
2023/03/25 05:01:47;;;;;;;1.10;1.00;;;19.90;68.00;;;;;;4955630;29;20492;-87
2023/03/25 05:04:16;;;;;;;1.30;1.17;;;19.90;68.10;;;;;;4955807;29;20453;-87
2023/03/25 05:06:45;;;;;;;1.90;1.10;;;20.00;68.20;;;;;;4955972;29;20778;-87
2023/03/25 05:09:15;;;;;;;1.40;1.07;;;19.90;68.00;;;;;;4956215;29;20580;-90
2023/03/25 05:11:42;;;;;;;1.40;0.90;;;19.90;68.10;;;;;;4955807;29;20495;-87
2023/03/25 05:14:10;;;;;;;2.33;0.90;;;19.90;68.10;;;;;;4955594;29;20827;-87
2023/03/25 05:16:38;;;;;;;1.30;0.80;;;19.90;68.10;;;;;;4955384;29;20472;-87
2023/03/25 05:19:05;;;;;;;1.40;1.00;;;19.90;68.10;;;;;;4955623;29;20460;-87
2023/03/25 05:21:34;;;;;;;1.10;0.87;;;19.90;68.10;;;;;;4955649;29;20442;-87
2023/03/25 05:24:01;;;;;;;1.67;0.87;;;20.00;68.20;;;;;;4955397;29;20446;-88
2023/03/25 05:26:33;;;;;;;2.13;1.20;;;19.90;68.10;;;;;;4955346;29;20445;-87
2023/03/25 05:29:00;;;;;;;1.20;0.93;;;19.90;68.00;;;;;;4955466;29;20517;-88
2023/03/25 05:31:27;;;;;;;1.20;0.80;;;19.90;68.10;;;;;;4955346;29;20446;-87
2023/03/25 05:33:56;;;;;;;3.43;1.10;;;20.10;68.30;;;;;;4955576;29;20450;-89
2023/03/25 05:36:24;;;;;;;1.10;0.80;;;19.90;68.10;;;;;;4955353;29;20484;-88
2023/03/25 05:38:53;;;;;;;1.47;1.10;;;19.90;68.00;;;;;;4955497;29;20445;-87
2023/03/25 05:41:21;;;;;;;1.43;1.20;;;19.90;68.00;;;;;;4955507;29;20450;-87
2023/03/25 05:43:49;;;;;;;1.60;1.00;;;19.90;68.00;;;;;;4955436;29;20552;-88
2023/03/25 05:46:17;;;;;;;1.03;0.80;;;19.90;68.00;;;;;;4955053;29;20474;-88
2023/03/25 05:48:44;;;;;;;1.00;0.80;;;19.90;68.00;;;;;;4955401;29;20485;-87
2023/03/25 05:51:15;;;;;;;5.10;1.07;;;19.90;68.00;;;;;;4955087;29;20460;-86
2023/03/25 05:53:43;;;;;;;1.20;0.80;;;19.90;68.10;;;;;;4955151;29;20449;-87
2023/03/25 05:56:10;;;;;;;1.50;1.10;;;19.90;68.10;;;;;;4955387;29;20846;-86
2023/03/25 05:58:38;;;;;;;1.80;1.30;;;19.90;68.10;;;;;;4955282;29;20810;-86
2023/03/25 06:01:05;;;;;;;1.47;0.87;;;20.00;68.10;;;;;;4954988;29;20482;-86
2023/03/25 06:03:34;;;;;;;2.43;0.90;;;19.90;68.10;;;;;;4955143;29;20822;-88
2023/03/25 06:06:05;;;;;;;1.50;1.00;;;19.90;68.00;;;;;;4955199;29;20545;-87
2023/03/25 06:08:34;;;;;;;1.10;0.90;;;19.90;68.00;;;;;;4954903;29;20517;-87
2023/03/25 06:11:02;;;;;;;1.10;0.90;;;19.90;68.00;;;;;;4954851;29;20449;-87
2023/03/25 06:13:32;;;;;;;1.30;0.90;;;19.90;68.00;;;;;;4955090;29;20937;-86
2023/03/25 06:15:59;;;;;;;1.40;1.00;;;19.80;67.90;;;;;;4955092;29;20474;-87
2023/03/25 06:18:26;;;;;;;1.10;0.80;;;20.00;68.10;;;;;;4955157;29;20442;-87
2023/03/25 06:20:56;;;;;;;1.10;0.80;;;19.90;68.00;;;;;;4955046;29;20934;-87
2023/03/25 06:23:25;;;;;;;1.07;0.87;;;19.80;67.90;;;;;;4954825;29;20992;-88
2023/03/25 06:25:53;;;;;;;1.20;0.90;;;19.90;68.00;;;;;;4954915;29;20840;-87
2023/03/25 06:28:22;;;;;;;1.17;1.00;;;19.80;67.90;;;;;;4954719;29;20494;-86
2023/03/25 06:30:49;;;;;;;1.23;1.00;;;19.90;67.90;;;;;;4954780;29;20552;-86
2023/03/25 06:33:18;;;;;;;1.07;0.73;;;19.80;67.90;;;;;;4954658;29;20464;-87
2023/03/25 06:35:52;;;;;;;1.97;1.10;;;20.00;68.00;;;;;;4954884;29;20481;-86
2023/03/25 06:38:20;;;;;;;2.50;0.90;;;19.90;67.90;;;;;;4954807;29;20455;-87
2023/03/25 06:40:47;;;;;;;2.20;0.90;;;19.90;67.90;;;;;;4954775;29;20480;-86
2023/03/25 06:43:15;;;;;;;1.87;1.00;;;19.80;67.80;;;;;;4955746;28;20449;-87
2023/03/25 06:45:42;;;;;;;1.43;1.00;;;19.90;68.00;;;;;;4958156;29;20444;-87
2023/03/25 06:48:09;;;;;;;1.27;0.90;;;19.80;67.80;;;;;;4958247;29;20484;-87
2023/03/25 06:50:36;;;;;;;1.40;0.90;;;19.80;67.80;;;;;;4958122;29;20454;-83
2023/03/25 06:53:03;;;;;;;2.03;1.00;;;19.80;67.80;;;;;;4958135;29;20454;-86
2023/03/25 06:55:30;;;;;;;1.07;0.87;;;19.90;66.80;;;;;;4957923;29;20446;-86
2023/03/25 06:57:56;;;;;;;1.00;0.70;;;19.90;67.60;;;;;;4957880;29;20796;-84
2023/03/25 07:00:27;;;;;;;1.20;0.90;;;19.80;67.60;;;;;;4957497;29;20484;-84
2023/03/25 07:02:54;;;;;;;1.20;0.87;;;19.80;67.60;;;;;;4957903;29;20442;-87
2023/03/25 07:05:21;;;;;;;1.37;0.83;;;19.80;67.60;;;;;;4957728;29;20980;-84
2023/03/25 07:07:47;;;;;;;1.60;0.93;;;19.90;67.80;;;;;;4957499;29;20450;-85
2023/03/25 07:10:14;;;;;;;1.10;0.90;;;19.90;67.80;;;;;;4957923;29;20438;-85
2023/03/25 07:12:41;;;;;;;1.23;0.80;;;19.90;67.90;;;;;;4957627;29;20446;-85
2023/03/25 07:15:08;;;;;;;1.77;0.97;;;19.90;67.80;;;;;;4957625;29;20448;-85
2023/03/25 07:17:37;;;;;;;3.77;0.80;;;19.90;67.70;;;;;;4957493;29;20465;-85
2023/03/25 07:20:04;;;;;;;3.73;1.00;;;19.90;67.70;;;;;;4957519;29;20453;-86
2023/03/25 07:22:31;;;;;;;1.10;0.90;;;19.90;67.90;;;;;;4957634;29;20452;-85
2023/03/25 07:24:58;;;;;;;1.57;0.87;;;19.90;68.00;;;;;;4957636;29;20438;-86
2023/03/25 07:27:25;;;;;;;1.40;0.90;;;19.90;68.00;;;;;;4957485;29;20441;-86
2023/03/25 07:29:52;;;;;;;1.10;0.90;;;19.90;68.10;;;;;;4957433;29;20573;-86
2023/03/25 07:32:19;;;;;;;1.73;1.50;;;19.90;68.20;;;;;;4957335;29;20457;-86
2023/03/25 07:34:47;;;;;;;1.20;1.03;;;19.90;68.20;;;;;;4957181;29;20461;-86
2023/03/25 07:37:14;;;;;;;1.00;0.87;;;19.90;68.20;;;;;;4957259;29;20445;-86
2023/03/25 07:39:41;;;;;;;2.03;1.47;;;20.10;68.50;;;;;;4957180;29;20446;-86
2023/03/25 07:42:07;;;;;;;1.47;1.10;;;20.00;68.40;;;;;;4957211;29;20457;-86
2023/03/25 07:44:34;;;;;;;10.10;1.10;;;19.90;68.30;;;;;;4957145;29;20449;-86
2023/03/25 07:47:01;;;;;;;1.60;1.13;;;20.10;68.60;;;;;;4956955;29;20817;-85
2023/03/25 07:49:28;;;;;;;1.10;0.90;;;20.00;68.30;;;;;;4957211;28;20495;-86
2023/03/25 07:51:56;;;;;;;1.73;1.00;;;20.00;68.40;;;;;;4956923;29;20442;-86
2023/03/25 07:54:23;;;;;;;1.40;0.90;;;20.00;68.40;;;;;;4956679;28;20946;-87
2023/03/25 07:56:51;;;;;;;1.20;1.00;;;20.00;68.50;;;;;;4956864;29;20930;-86
2023/03/25 07:59:18;;;;;;;1.20;0.80;;;20.00;68.60;;;;;;4956844;29;20450;-85
2023/03/25 08:01:45;;;;;;;2.47;0.93;;;20.10;68.70;;;;;;4956798;29;20480;-86
2023/03/25 08:04:12;;;;;;;1.60;1.00;;;20.00;68.60;;;;;;4957126;29;20814;-87
2023/03/25 08:06:39;;;;;;;1.50;0.87;;;20.00;68.70;;;;;;4956697;29;20496;-86
2023/03/25 08:09:08;;;;;;;1.67;1.10;;;20.00;68.70;;;;;;4957068;29;20493;-85
2023/03/25 08:11:34;;;;;;;2.20;1.23;;;19.90;68.60;;;;;;4956601;29;20442;-88
2023/03/25 08:14:01;;;;;;;1.10;1.00;;;20.00;68.70;;;;;;4956451;29;20456;-83
2023/03/25 08:16:28;;;;;;;2.27;0.90;;;20.00;68.80;;;;;;4956314;29;20523;-85
2023/03/25 08:18:55;;;;;;;2.07;1.10;;;20.10;68.80;;;;;;4956658;29;20442;-84
2023/03/25 08:21:24;;;;;;;1.50;0.90;;;20.00;68.70;;;;;;4956653;29;20446;-85
2023/03/25 08:23:53;;;;;;;3.00;1.00;;;20.10;68.90;;;;;;4956363;29;20449;-85
2023/03/25 08:26:21;;;;;;;3.00;0.90;;;20.00;68.70;;;;;;4956241;29;20454;-85
2023/03/25 08:28:48;;;;;;;1.73;0.90;;;20.00;68.70;;;;;;4956219;29;20484;-84
2023/03/25 08:31:15;;;;;;;2.03;0.90;;;20.00;68.80;;;;;;4956290;29;20449;-85
2023/03/25 08:33:42;;;;;;;1.10;0.90;;;20.00;68.80;;;;;;4956273;29;20452;-89
2023/03/25 08:36:12;;;;;;;1.10;0.80;;;20.00;68.70;;;;;;4956047;29;20437;-88
2023/03/25 08:38:40;;;;;;;1.20;0.90;;;20.00;68.70;;;;;;4956208;29;20533;-84
2023/03/25 08:41:07;;;;;;;1.30;1.13;;;20.00;68.60;;;;;;4956034;29;20565;-84
2023/03/25 08:43:35;;;;;;;2.70;0.97;;;20.00;68.60;;;;;;4955927;29;20441;-85
2023/03/25 08:46:02;;;;;;;1.43;0.90;;;20.00;68.50;;;;;;4955777;29;20889;-85
2023/03/25 08:48:29;;;;;;;2.03;0.80;;;20.10;68.60;;;;;;4955851;29;20504;-84
2023/03/25 08:50:56;;;;;;;3.20;0.93;;;20.00;68.50;;;;;;4955992;29;20480;-86
2023/03/25 08:53:24;;;;;;;2.23;0.80;;;20.10;68.60;;;;;;4955720;29;20446;-86
2023/03/25 08:55:52;;;;;;;3.43;1.30;;;20.00;68.60;;;;;;4955707;29;20454;-85
2023/03/25 08:58:19;;;;;;;2.70;1.40;;;20.10;69.60;;;;;;4956226;29;20473;-85
2023/03/25 09:00:48;;;;;;;7.73;1.17;;;20.10;68.90;;;;;;4955788;29;20480;-84
2023/03/25 09:03:16;;;;;;;3.87;1.10;;;20.10;68.70;;;;;;4955605;29;20449;-83
2023/03/25 09:05:43;;;;;;;5.93;1.10;;;20.10;68.90;;;;;;4955138;28;20834;-85
2023/03/25 09:08:09;;;;;;;4.70;1.60;;;20.10;68.50;;;;;;4955687;29;20459;-83
2023/03/25 09:10:36;;;;;;;5.10;3.83;;;20.10;68.60;;;;;;4955432;29;20551;-86
2023/03/25 09:13:03;;;;;;;4.10;2.17;;;20.10;68.70;;;;;;4956458;28;20441;-95
2023/03/25 09:15:30;;;;;;;3.87;1.80;;;20.10;68.70;;;;;;4955991;29;20442;-90
2023/03/25 09:17:58;;;;;;;4.77;2.30;;;20.10;68.70;;;;;;4957162;29;20529;-84
2023/03/25 09:20:25;;;;;;;4.43;1.77;;;20.10;68.90;;;;;;4957785;29;20774;-85
2023/03/25 09:22:52;;;;;;;22.40;11.63;;;20.10;69.00;;;;;;4958050;29;20610;-84
2023/03/25 09:25:19;;;;;;;27.03;19.33;;;20.30;69.20;;;;;;4955919;29;20506;-85
2023/03/25 09:27:45;;;;;;;25.23;17.67;;;20.10;69.10;;;;;;4956290;29;20452;-86
2023/03/25 09:30:15;;;;;;;28.33;21.20;;;20.10;69.00;;;;;;4955855;29;20485;-86
2023/03/25 09:32:43;;;;;;;28.03;20.00;;;20.10;69.10;;;;;;4955913;29;20434;-85
2023/03/25 09:35:11;;;;;;;11.13;8.80;;;20.10;69.00;;;;;;4957454;29;20507;-85
2023/03/25 09:37:38;;;;;;;43.00;32.23;;;20.00;68.00;;;;;;4957312;29;20976;-91
2023/03/25 09:40:07;;;;;;;47.10;35.00;;;20.10;68.40;;;;;;4960065;29;20433;-83
2023/03/25 09:42:42;;;;;;;34.87;25.47;;;20.10;68.50;;;;;;4956178;29;20528;-85
2023/03/25 09:45:28;;;;;;;33.73;25.10;;;20.10;68.30;;;;;;4956528;29;20448;-87
2023/03/25 09:47:59;;;;;;;29.77;23.53;;;20.10;68.40;;;;;;4956278;29;20440;-91
2023/03/25 09:50:30;;;;;;;27.53;20.87;;;20.10;68.50;;;;;;4959684;29;20491;-82
2023/03/25 09:53:01;;;;;;;12.60;10.23;;;20.10;68.70;;;;;;4972092;29;20473;-83
2023/03/25 09:55:32;;;;;;;21.90;15.70;;;20.10;67.50;;;;;;4979745;28;20435;-89
2023/03/25 09:58:03;;;;;;;19.90;14.10;;;20.10;67.60;;;;;;4958855;29;20446;-87
2023/03/25 10:00:32;;;;;;;22.20;16.07;;;20.10;68.00;;;;;;4955221;29;20485;-90
2023/03/25 10:03:12;;;;;;;17.97;15.10;;;20.20;68.30;;;;;;4955433;29;21009;-92
2023/03/25 10:06:11;;;;;;;20.53;15.20;;;20.20;68.50;;;;;;4955193;29;20459;-85
2023/03/25 10:08:50;;;;;;;23.27;14.57;;;20.20;68.60;;;;;;4955327;29;20438;-93
2023/03/25 10:11:25;;;;;;;15.30;10.33;;;20.20;68.90;;;;;;4962825;29;20456;-96
2023/03/25 10:14:01;;;;;;;11.73;9.00;;;20.30;67.90;;;;;;4963280;28;20527;-88
2023/03/25 10:16:36;;;;;;;17.17;11.67;;;20.20;67.60;;;;;;4970093;28;20480;-87
2023/03/25 10:19:28;;;;;;;14.47;11.70;;;20.30;68.30;;;;;;4978980;28;20486;-92
2023/03/25 10:24:38;;;;;;;30.97;18.60;;;20.30;68.80;;;;;;4788243;23;20483;-93
2023/03/25 10:27:17;;;;;;;33.20;18.97;;;20.30;69.00;;;;;;5041952;23;20499;-95
2023/03/25 10:29:49;;;;;;;33.03;21.63;;;20.30;68.90;;;;;;4997633;28;20486;-87
2023/03/25 10:32:18;;;;;;;42.30;23.40;;;20.30;69.00;;;;;;4997380;28;20458;-88
2023/03/25 10:34:49;;;;;;;45.90;26.10;;;20.40;69.20;;;;;;4997218;28;20448;-86
2023/03/25 10:37:23;;;;;;;43.50;26.83;;;20.40;69.20;;;;;;4997382;28;20443;-89
2023/03/25 10:39:51;;;;;;;45.00;30.70;;;20.50;69.30;;;;;;4997230;28;20444;-89
2023/03/25 10:42:25;;;;;;;47.90;29.47;;;20.40;69.20;;;;;;4997538;28;20454;-90
2023/03/25 10:44:53;;;;;;;47.67;31.20;;;20.40;69.50;;;;;;4997751;28;20499;-85
2023/03/25 10:47:23;;;;;;;41.90;26.07;;;20.40;69.70;;;;;;4997666;28;20450;-84
2023/03/25 10:49:52;;;;;;;37.83;23.70;;;20.50;69.10;;;;;;4998540;28;20835;-92
2023/03/25 10:52:19;;;;;;;43.47;27.63;;;20.50;70.30;;;;;;4997518;28;20454;-88
2023/03/25 10:54:50;;;;;;;43.37;28.50;;;20.60;69.90;;;;;;4997381;28;20863;-88
2023/03/25 10:57:22;;;;;;;39.83;28.00;;;20.50;69.80;;;;;;4997722;28;20889;-90
2023/03/25 11:00:04;;;;;;;42.53;31.10;;;20.50;69.70;;;;;;4997589;28;20877;-87
2023/03/25 11:02:33;;;;;;;57.13;30.73;;;20.60;69.80;;;;;;4981256;28;20444;-89
2023/03/25 11:05:03;;;;;;;42.40;28.77;;;20.70;70.00;;;;;;4982119;28;20444;-86
2023/03/25 11:07:34;;;;;;;46.27;29.93;;;20.60;69.90;;;;;;4997090;28;20951;-85
2023/03/25 11:10:16;;;;;;;41.83;28.60;;;20.60;70.20;;;;;;4998510;28;20487;-94
2023/03/25 11:12:47;;;;;;;40.03;29.33;;;20.70;70.50;;;;;;5002375;28;20455;-83
2023/03/25 11:15:16;;;;;;;38.40;29.17;;;20.70;71.20;;;;;;5001351;28;21009;-84
2023/03/25 11:17:46;;;;;;;46.87;30.57;;;20.70;71.40;;;;;;5001609;28;20480;-84
2023/03/25 11:20:20;;;;;;;39.03;27.13;;;20.70;71.60;;;;;;5003480;28;20444;-84
2023/03/25 11:22:49;;;;;;;42.13;29.10;;;20.80;71.90;;;;;;5004597;28;20435;-83
2023/03/25 11:25:23;;;;;;;39.07;27.43;;;20.80;71.90;;;;;;5005127;28;20448;-84
2023/03/25 11:27:56;;;;;;;35.93;26.30;;;20.80;72.00;;;;;;5004761;28;20500;-83
2023/03/25 11:30:24;;;;;;;35.37;26.40;;;20.80;71.90;;;;;;5001975;28;20915;-83
2023/03/25 11:32:59;;;;;;;31.00;23.40;;;20.80;71.90;;;;;;5001294;28;20439;-83
2023/03/25 11:35:29;;;;;;;40.87;26.20;;;20.90;72.00;;;;;;5000494;28;20476;-83
2023/03/25 11:37:58;;;;;;;40.13;25.70;;;20.90;72.10;;;;;;5000592;28;20851;-83
2023/03/25 11:40:27;;;;;;;36.17;25.40;;;21.00;72.40;;;;;;4999977;28;20448;-84
2023/03/25 11:42:57;;;;;;;31.40;23.80;;;21.00;72.60;;;;;;5000247;28;20512;-83
2023/03/25 11:45:27;;;;;;;30.93;23.73;;;21.10;72.90;;;;;;5000983;28;20464;-82
2023/03/25 11:47:59;;;;;;;33.53;23.77;;;21.10;73.00;;;;;;5001269;28;20444;-81
2023/03/25 11:50:28;;;;;;;34.03;22.90;;;21.20;72.90;;;;;;5000303;28;20523;-82
2023/03/25 11:52:59;;;;;;;31.00;22.93;;;21.20;73.10;;;;;;4998565;28;20444;-82
2023/03/25 11:55:29;;;;;;;31.20;22.97;;;21.20;73.20;;;;;;4998665;28;20928;-81
2023/03/25 11:57:59;;;;;;;32.43;23.27;;;21.30;74.20;;;;;;4999565;28;20451;-82
2023/03/25 12:00:48;;;;;;;30.00;22.10;;;21.40;73.50;;;;;;4997496;28;20535;-81
2023/03/25 12:03:21;;;;;;;26.57;21.07;;;21.40;73.50;;;;;;4999151;28;20471;-82
2023/03/25 12:06:03;;;;;;;28.33;21.10;;;21.50;73.50;;;;;;5001007;28;20427;-82
2023/03/25 12:08:41;;;;;;;27.53;19.80;;;21.60;73.60;;;;;;5003208;28;20484;-80
2023/03/25 12:11:20;;;;;;;27.70;19.70;;;21.60;73.50;;;;;;5001637;28;20668;-82
2023/03/25 12:14:18;;;;;;;27.07;19.27;;;21.60;73.30;;;;;;5001377;28;20507;-82
2023/03/25 12:16:51;;;;;;;26.93;19.33;;;21.60;73.40;;;;;;5002796;28;20526;-82
2023/03/25 12:19:32;;;;;;;29.17;19.97;;;21.60;73.30;;;;;;5002091;28;20440;-81
2023/03/25 12:22:18;;;;;;;27.27;19.13;;;21.60;73.40;;;;;;4984672;28;20814;-82
2023/03/25 12:25:26;;;;;;;29.53;18.30;;;21.60;73.20;;;;;;5001692;28;20450;-82
2023/03/25 12:28:14;;;;;;;24.27;17.90;;;21.60;73.20;;;;;;4999032;28;20472;-83
2023/03/25 12:30:54;;;;;;;24.80;17.83;;;21.60;73.20;;;;;;5007174;28;20496;-81
2023/03/25 12:33:36;;;;;;;23.27;18.13;;;21.60;73.20;;;;;;5013270;28;20432;-81
2023/03/25 12:36:28;;;;;;;25.80;17.97;;;21.70;73.40;;;;;;5003650;28;20956;-82
2023/03/25 12:39:08;;;;;;;25.13;17.07;;;21.70;73.40;;;;;;5001427;28;20535;-82
2023/03/25 12:41:42;;;;;;;22.13;15.70;;;21.70;73.20;;;;;;5000271;28;20524;-84
2023/03/25 12:44:18;;;;;;;22.80;15.50;;;21.70;73.10;;;;;;5000504;28;20471;-83
2023/03/25 12:47:11;;;;;;;21.43;16.30;;;21.70;73.10;;;;;;5000786;28;20472;-83
2023/03/25 12:49:51;;;;;;;17.17;13.80;;;21.70;73.10;;;;;;5003796;28;20420;-84
2023/03/25 12:52:25;;;;;;;29.13;16.93;;;21.80;73.00;;;;;;5004044;28;20448;-82
2023/03/25 12:55:13;;;;;;;31.70;24.70;;;21.80;72.90;;;;;;5005398;28;20444;-83
2023/03/25 12:57:56;;;;;;;32.23;23.40;;;21.90;73.00;;;;;;5007594;28;20440;-83
2023/03/25 13:00:42;;;;;;;21.27;17.23;;;21.90;73.10;;;;;;4999715;28;20455;-84
2023/03/25 13:03:25;;;;;;;35.83;25.10;;;21.90;71.10;;;;;;4999919;28;20471;-83